Time;durP1;ratioP1;P1;durP2;ratioP2;P2;SDS_P1;SDS_P2;PMS_P1;PMS_P2;Temp;Humidity;BMP_temperature;BMP_pressure;BME280_temperature;BME280_humidity;BME280_pressure;Samples;Min_cycle;Max_cycle;Signal;HPM_P1;HPM_P2
2024/03/29 00:01:45;;;;;;;2.45;0.45;;;8.90;99.90;;;;;;5078899;28;20036;-81
2024/03/29 00:04:10;;;;;;;0.95;0.60;;;8.90;99.90;;;;;;5079791;28;20020;-80
2024/03/29 00:06:36;;;;;;;3.65;0.50;;;8.90;99.90;;;;;;5096483;28;20020;-81
2024/03/29 00:09:01;;;;;;;1.45;0.40;;;8.90;99.90;;;;;;5096853;28;20081;-81
2024/03/29 00:11:27;;;;;;;1.48;0.60;;;8.90;99.90;;;;;;5096326;28;20027;-82
2024/03/29 00:13:53;;;;;;;1.63;0.50;;;8.90;99.90;;;;;;5078831;28;20073;-81
2024/03/29 00:16:18;;;;;;;0.85;0.40;;;8.90;99.90;;;;;;5078976;28;20468;-81
2024/03/29 00:18:44;;;;;;;0.70;0.50;;;8.90;99.90;;;;;;5078259;28;20476;-81
2024/03/29 00:21:10;;;;;;;1.42;0.52;;;8.90;99.80;;;;;;5096601;28;20024;-81
2024/03/29 00:23:35;;;;;;;1.67;0.70;;;8.90;99.70;;;;;;5078234;28;20364;-81
2024/03/29 00:26:01;;;;;;;2.15;0.60;;;9.00;99.60;;;;;;5078431;28;20020;-82
2024/03/29 00:28:27;;;;;;;1.30;0.50;;;9.00;99.60;;;;;;5078871;28;20016;-82
2024/03/29 00:30:52;;;;;;;0.68;0.40;;;9.00;99.40;;;;;;5078668;28;20020;-82
2024/03/29 00:33:18;;;;;;;1.17;0.50;;;9.10;99.30;;;;;;5078624;28;20101;-81
2024/03/29 00:35:43;;;;;;;1.40;0.50;;;9.10;99.40;;;;;;5077960;28;20024;-81
2024/03/29 00:38:09;;;;;;;0.65;0.40;;;9.10;99.30;;;;;;5096655;28;20027;-81
2024/03/29 00:40:36;;;;;;;0.60;0.47;;;9.10;99.10;;;;;;5077916;28;20427;-82
2024/03/29 00:43:01;;;;;;;0.43;0.30;;;9.20;99.10;;;;;;5078461;28;20065;-81
2024/03/29 00:45:28;;;;;;;2.90;0.55;;;9.20;99.30;;;;;;5096616;28;20044;-81
2024/03/29 00:47:54;;;;;;;2.55;0.60;;;9.20;99.20;;;;;;5096641;28;20030;-81
2024/03/29 00:50:20;;;;;;;1.40;0.40;;;9.30;99.00;;;;;;5096429;28;20095;-82
2024/03/29 00:52:47;;;;;;;2.70;0.40;;;9.30;98.90;;;;;;5077842;28;20118;-81
2024/03/29 00:55:13;;;;;;;1.05;0.50;;;9.30;99.00;;;;;;5078136;28;20020;-81
2024/03/29 00:57:39;;;;;;;0.47;0.40;;;9.30;98.70;;;;;;5077763;28;20027;-81
2024/03/29 01:00:05;;;;;;;1.13;0.50;;;9.40;98.80;;;;;;5095888;28;20020;-81
2024/03/29 01:02:31;;;;;;;0.90;0.57;;;9.30;98.70;;;;;;5077643;28;20024;-82
2024/03/29 01:04:56;;;;;;;1.80;0.45;;;9.30;98.40;;;;;;5077851;28;20369;-81
2024/03/29 01:07:22;;;;;;;2.78;0.40;;;9.30;98.00;;;;;;5077577;28;20154;-81
2024/03/29 01:09:47;;;;;;;2.55;0.55;;;9.40;98.10;;;;;;5095513;28;20024;-82
2024/03/29 01:12:13;;;;;;;1.58;0.50;;;9.40;98.00;;;;;;5078065;28;20059;-82
2024/03/29 01:14:39;;;;;;;1.35;0.45;;;9.40;97.80;;;;;;5077190;28;20032;-81
2024/03/29 01:17:06;;;;;;;1.80;0.80;;;9.50;97.80;;;;;;5095632;28;20030;-81
2024/03/29 01:19:32;;;;;;;3.90;0.77;;;9.50;97.50;;;;;;5077297;28;20031;-83
2024/03/29 01:21:57;;;;;;;3.97;1.33;;;9.50;97.40;;;;;;5095513;28;20016;-80
2024/03/29 01:24:23;;;;;;;0.85;0.47;;;9.50;97.20;;;;;;5095149;28;20012;-81
2024/03/29 01:26:49;;;;;;;2.75;0.47;;;9.50;97.10;;;;;;5095311;28;20437;-82
2024/03/29 01:29:15;;;;;;;0.73;0.52;;;9.50;97.10;;;;;;5095482;28;20057;-82
2024/03/29 01:31:41;;;;;;;0.85;0.50;;;9.50;96.90;;;;;;5077061;28;20024;-82
2024/03/29 01:34:07;;;;;;;1.73;0.50;;;9.50;96.90;;;;;;5095472;28;20086;-82
2024/03/29 01:36:32;;;;;;;1.52;0.47;;;9.50;96.70;;;;;;5076429;28;20024;-82
2024/03/29 01:38:58;;;;;;;1.33;0.57;;;9.60;96.60;;;;;;5095261;28;20012;-82
2024/03/29 01:41:27;;;;;;;1.10;0.50;;;9.60;96.50;;;;;;5077118;28;20126;-82
2024/03/29 01:43:54;;;;;;;1.95;0.57;;;9.60;96.60;;;;;;5076835;28;20020;-82
2024/03/29 01:46:22;;;;;;;1.00;0.38;;;9.60;96.50;;;;;;5076980;28;20020;-82
2024/03/29 01:48:48;;;;;;;1.23;0.52;;;9.60;96.60;;;;;;5076786;28;20062;-82
2024/03/29 01:51:15;;;;;;;1.00;0.47;;;9.70;96.50;;;;;;5094814;28;20399;-82
2024/03/29 01:53:41;;;;;;;0.82;0.40;;;9.70;96.50;;;;;;5094602;28;20365;-82
2024/03/29 01:56:08;;;;;;;2.70;0.40;;;9.70;96.50;;;;;;5077189;28;20034;-82
2024/03/29 01:58:34;;;;;;;3.10;0.52;;;9.70;96.40;;;;;;5077213;28;20436;-83
2024/03/29 02:01:00;;;;;;;0.75;0.50;;;9.70;96.40;;;;;;5077245;28;20016;-81
2024/03/29 02:03:29;;;;;;;1.17;0.40;;;9.80;96.40;;;;;;5077423;28;20059;-82
2024/03/29 02:05:57;;;;;;;1.20;0.47;;;9.80;96.50;;;;;;5076641;28;20428;-81
2024/03/29 02:08:23;;;;;;;1.60;0.60;;;9.80;96.60;;;;;;5094964;28;20020;-81
2024/03/29 02:10:50;;;;;;;0.95;0.32;;;9.80;96.40;;;;;;5076833;28;20059;-82
2024/03/29 02:13:15;;;;;;;1.30;0.55;;;9.90;96.40;;;;;;5076885;28;20034;-82
2024/03/29 02:15:41;;;;;;;0.25;0.22;;;9.90;96.50;;;;;;5076416;28;20123;-82
2024/03/29 02:18:07;;;;;;;2.15;0.40;;;9.90;96.20;;;;;;5077011;28;20032;-84
2024/03/29 02:20:36;;;;;;;1.50;0.50;;;10.00;96.20;;;;;;5094832;28;20020;-82
2024/03/29 02:23:16;;;;;;;1.85;0.50;;;10.00;96.20;;;;;;5077207;28;20094;-82
2024/03/29 02:25:41;;;;;;;1.45;0.40;;;10.00;96.10;;;;;;5076185;28;20024;-82
2024/03/29 02:28:07;;;;;;;0.80;0.38;;;10.00;96.40;;;;;;5094340;28;20024;-82
2024/03/29 02:30:33;;;;;;;1.50;0.30;;;10.00;95.90;;;;;;5076712;28;20027;-82
2024/03/29 02:33:00;;;;;;;0.80;0.55;;;10.00;95.90;;;;;;5076026;28;20122;-83
2024/03/29 02:35:26;;;;;;;0.93;0.50;;;10.00;95.80;;;;;;5076813;28;20381;-81
2024/03/29 02:37:52;;;;;;;0.88;0.50;;;10.10;95.90;;;;;;5076159;28;20070;-83
2024/03/29 02:40:18;;;;;;;1.30;0.38;;;10.10;95.80;;;;;;5076401;28;20441;-83
2024/03/29 02:42:44;;;;;;;0.43;0.30;;;10.10;95.70;;;;;;5076568;28;20024;-83
2024/03/29 02:45:10;;;;;;;1.30;0.55;;;10.20;96.00;;;;;;5094234;28;20422;-83
2024/03/29 02:47:35;;;;;;;1.98;0.40;;;10.20;96.00;;;;;;5075615;28;20024;-85
2024/03/29 02:50:01;;;;;;;0.77;0.40;;;10.20;95.80;;;;;;5076720;28;20453;-82
2024/03/29 02:52:28;;;;;;;3.25;0.50;;;10.20;95.90;;;;;;5093923;28;20103;-83
2024/03/29 02:54:54;;;;;;;0.43;0.40;;;10.20;95.80;;;;;;5093808;28;20031;-82
2024/03/29 02:57:20;;;;;;;3.03;0.50;;;10.20;95.80;;;;;;5076264;28;20024;-83
2024/03/29 02:59:45;;;;;;;0.98;0.40;;;10.30;95.80;;;;;;5075664;28;20449;-83
2024/03/29 03:02:11;;;;;;;0.73;0.30;;;10.20;95.80;;;;;;5094063;28;20027;-83
2024/03/29 03:04:36;;;;;;;0.50;0.40;;;10.30;95.90;;;;;;5076132;28;20467;-85
2024/03/29 03:12:32;;;;;;;0.73;0.22;;;10.30;96.00;;;;;;5093684;28;20460;-82
2024/03/29 03:14:59;;;;;;;2.08;0.40;;;10.30;96.20;;;;;;5075800;28;20031;-82
2024/03/29 03:17:28;;;;;;;1.05;0.40;;;10.30;96.60;;;;;;5076176;28;20353;-83
2024/03/29 03:19:54;;;;;;;0.50;0.30;;;10.30;97.50;;;;;;5075713;28;20181;-82
2024/03/29 03:22:20;;;;;;;0.70;0.30;;;10.30;98.60;;;;;;5076135;28;20484;-82
2024/03/29 03:24:45;;;;;;;0.68;0.30;;;10.30;99.20;;;;;;5075415;28;20028;-83
2024/03/29 03:27:11;;;;;;;0.85;0.38;;;10.30;99.60;;;;;;5076337;28;20020;-83
2024/03/29 03:29:37;;;;;;;0.47;0.30;;;10.20;99.40;;;;;;5076000;28;20103;-83
2024/03/29 03:32:03;;;;;;;0.85;0.20;;;10.30;99.90;;;;;;5075426;28;20031;-83
2024/03/29 03:34:29;;;;;;;0.93;0.30;;;10.20;99.90;;;;;;5076095;28;20020;-84
2024/03/29 03:36:54;;;;;;;1.25;0.50;;;10.20;99.90;;;;;;5093602;28;20020;-81
2024/03/29 03:39:20;;;;;;;0.50;0.47;;;10.10;99.90;;;;;;5094180;28;20048;-82
2024/03/29 03:41:46;;;;;;;0.68;0.30;;;10.10;99.90;;;;;;5075618;28;20414;-81
2024/03/29 03:44:12;;;;;;;1.45;0.32;;;10.10;99.90;;;;;;5094046;28;20134;-81
2024/03/29 03:46:38;;;;;;;0.90;0.40;;;10.10;99.90;;;;;;5076168;28;20024;-82
2024/03/29 03:49:03;;;;;;;1.67;0.20;;;10.20;99.90;;;;;;5093948;28;20027;-81
2024/03/29 03:51:29;;;;;;;1.00;0.45;;;10.20;99.90;;;;;;5093757;28;20096;-81
2024/03/29 03:53:54;;;;;;;1.90;0.40;;;10.20;99.90;;;;;;5075144;28;20048;-80
2024/03/29 03:56:20;;;;;;;0.98;0.38;;;10.20;99.90;;;;;;5075643;28;20031;-81
2024/03/29 03:58:45;;;;;;;0.60;0.30;;;10.30;99.90;;;;;;5075286;28;20025;-81
2024/03/29 04:01:11;;;;;;;2.30;0.50;;;10.20;99.90;;;;;;5096539;28;20134;-80
2024/03/29 04:03:37;;;;;;;1.48;0.73;;;10.30;99.90;;;;;;5079385;28;20020;-80
2024/03/29 04:06:06;;;;;;;0.70;0.40;;;10.30;99.90;;;;;;5096609;28;20472;-81
2024/03/29 04:08:32;;;;;;;1.52;0.40;;;10.30;99.90;;;;;;5079181;28;20373;-81
2024/03/29 04:10:58;;;;;;;0.85;0.47;;;10.30;99.50;;;;;;5078118;28;20012;-81
2024/03/29 04:13:23;;;;;;;1.23;0.45;;;10.30;99.30;;;;;;5078999;28;20081;-81
2024/03/29 04:15:49;;;;;;;0.60;0.40;;;10.30;99.30;;;;;;5096545;28;20111;-81
2024/03/29 04:18:15;;;;;;;0.65;0.40;;;10.30;99.40;;;;;;5078916;28;20020;-81
2024/03/29 04:20:41;;;;;;;2.00;0.40;;;10.30;98.70;;;;;;5078871;28;20023;-81
2024/03/29 04:23:07;;;;;;;1.55;0.30;;;10.40;99.30;;;;;;5078777;28;20365;-82
2024/03/29 04:25:32;;;;;;;1.27;0.30;;;10.40;99.90;;;;;;5078414;28;20020;-82
2024/03/29 04:27:59;;;;;;;0.60;0.40;;;10.40;99.90;;;;;;5078556;28;20016;-82
2024/03/29 04:30:24;;;;;;;2.17;0.57;;;10.30;99.90;;;;;;5078650;28;20114;-81
2024/03/29 04:32:50;;;;;;;0.95;0.32;;;10.40;99.90;;;;;;5096221;28;20020;-81
2024/03/29 04:35:16;;;;;;;1.58;0.30;;;10.30;99.90;;;;;;5078931;28;20469;-82
2024/03/29 04:37:41;;;;;;;2.75;0.40;;;10.30;99.90;;;;;;5079205;28;20020;-82
2024/03/29 04:40:07;;;;;;;2.28;0.30;;;10.30;99.90;;;;;;5078864;28;20050;-82
2024/03/29 04:42:33;;;;;;;0.55;0.30;;;10.30;99.90;;;;;;5096580;28;20020;-82
2024/03/29 04:44:59;;;;;;;0.28;0.20;;;10.30;99.90;;;;;;5078122;28;20043;-82
2024/03/29 04:47:24;;;;;;;1.33;0.30;;;10.30;99.90;;;;;;5096223;28;20064;-82
2024/03/29 04:49:50;;;;;;;0.45;0.30;;;10.20;99.90;;;;;;5078322;28;20016;-82
2024/03/29 04:52:16;;;;;;;1.77;0.30;;;10.30;99.90;;;;;;5096714;28;20031;-82
2024/03/29 04:54:43;;;;;;;0.50;0.30;;;10.30;99.90;;;;;;5078646;28;20445;-82
2024/03/29 04:57:09;;;;;;;0.77;0.20;;;10.30;99.90;;;;;;5079113;28;20017;-82
2024/03/29 04:59:35;;;;;;;0.63;0.28;;;10.20;99.90;;;;;;5096505;28;20031;-82
2024/03/29 05:02:01;;;;;;;1.02;0.30;;;10.20;99.90;;;;;;5095811;28;20109;-81
2024/03/29 05:04:26;;;;;;;1.15;0.20;;;10.20;99.90;;;;;;5078357;28;20146;-80
2024/03/29 05:06:56;;;;;;;1.02;0.60;;;10.20;99.90;;;;;;5077762;28;20476;-82
2024/03/29 05:09:23;;;;;;;1.35;0.63;;;10.30;99.90;;;;;;5077854;28;20027;-81
2024/03/29 05:11:48;;;;;;;1.15;0.40;;;10.30;99.90;;;;;;5077503;28;20035;-82
2024/03/29 05:14:20;;;;;;;1.45;0.77;;;10.30;99.90;;;;;;5096007;28;20028;-81
2024/03/29 05:16:46;;;;;;;0.80;0.45;;;10.30;99.90;;;;;;5095539;28;20028;-81
2024/03/29 05:19:13;;;;;;;1.60;0.45;;;10.30;99.90;;;;;;5078021;28;20062;-80
2024/03/29 05:21:39;;;;;;;0.68;0.40;;;10.30;99.90;;;;;;5078222;28;20024;-82
2024/03/29 05:24:06;;;;;;;1.23;0.40;;;10.30;99.90;;;;;;5077853;28;20029;-82
2024/03/29 05:26:32;;;;;;;0.85;0.40;;;10.30;99.90;;;;;;5078226;28;20027;-82
2024/03/29 05:28:58;;;;;;;0.73;0.50;;;10.30;99.90;;;;;;5095500;28;20076;-80
2024/03/29 05:31:24;;;;;;;0.52;0.50;;;10.30;99.90;;;;;;5078066;28;20058;-80
2024/03/29 05:33:50;;;;;;;0.80;0.40;;;10.30;99.90;;;;;;5077573;28;20111;-80
2024/03/29 05:36:16;;;;;;;1.30;0.43;;;10.30;99.90;;;;;;5077718;28;20031;-80
2024/03/29 05:38:42;;;;;;;0.63;0.43;;;10.30;99.90;;;;;;5078050;28;20028;-80
2024/03/29 05:41:07;;;;;;;1.05;0.60;;;10.30;99.90;;;;;;5077020;28;20445;-81
2024/03/29 05:43:33;;;;;;;5.65;0.60;;;10.20;99.90;;;;;;5077912;28;20449;-81
2024/03/29 05:46:02;;;;;;;0.73;0.40;;;10.20;99.90;;;;;;5094553;28;20039;-83
2024/03/29 05:48:28;;;;;;;0.60;0.50;;;10.20;99.90;;;;;;5077268;28;20020;-80
2024/03/29 05:50:54;;;;;;;1.02;0.60;;;10.20;99.90;;;;;;5076961;28;20028;-80
2024/03/29 05:53:19;;;;;;;0.90;0.63;;;10.20;99.90;;;;;;5095167;28;20020;-81
2024/03/29 05:55:45;;;;;;;2.58;0.60;;;10.20;99.90;;;;;;5095242;28;20440;-80
2024/03/29 05:58:11;;;;;;;0.82;0.40;;;10.20;99.90;;;;;;5094935;28;20354;-81
2024/03/29 06:00:36;;;;;;;0.77;0.50;;;10.20;99.90;;;;;;5095140;28;20103;-80
2024/03/29 06:03:02;;;;;;;1.80;0.77;;;10.20;99.90;;;;;;5094752;28;20506;-80
2024/03/29 06:05:28;;;;;;;1.15;0.50;;;10.20;99.90;;;;;;5094672;28;20076;-80
2024/03/29 06:07:54;;;;;;;2.47;0.70;;;10.20;99.90;;;;;;5094787;28;20063;-80
2024/03/29 06:10:20;;;;;;;2.58;0.70;;;10.20;99.90;;;;;;5077050;28;20020;-82
2024/03/29 06:12:45;;;;;;;1.08;0.60;;;10.20;99.90;;;;;;5094761;28;20081;-80
2024/03/29 06:17:55;;;;;;;1.73;0.70;;;10.10;99.90;;;;;;5094350;28;20034;-81
2024/03/29 06:20:21;;;;;;;1.27;0.65;;;10.10;99.90;;;;;;5076759;28;20023;-80
2024/03/29 06:22:46;;;;;;;4.35;0.80;;;10.10;99.90;;;;;;5076136;28;20074;-80
2024/03/29 06:25:12;;;;;;;1.75;0.60;;;10.10;99.90;;;;;;5076342;28;20453;-80
2024/03/29 06:27:38;;;;;;;1.48;0.82;;;10.10;99.90;;;;;;5076660;28;20024;-84
2024/03/29 06:30:05;;;;;;;3.10;0.82;;;10.10;99.90;;;;;;5076304;28;20024;-83
2024/03/29 06:32:31;;;;;;;2.53;0.80;;;10.10;99.90;;;;;;5077052;28;20024;-84
2024/03/29 06:34:58;;;;;;;2.47;0.70;;;10.10;99.90;;;;;;5076168;28;20024;-83
2024/03/29 06:37:25;;;;;;;0.77;0.40;;;10.00;99.90;;;;;;5094478;28;20012;-83
2024/03/29 06:39:51;;;;;;;3.03;0.90;;;10.10;99.90;;;;;;5093823;28;20018;-84
2024/03/29 06:42:17;;;;;;;1.08;0.80;;;10.00;99.90;;;;;;5076243;28;20024;-82
2024/03/29 06:44:43;;;;;;;2.95;0.70;;;10.00;99.90;;;;;;5076309;28;20040;-82
2024/03/29 06:47:09;;;;;;;2.17;1.20;;;10.00;99.90;;;;;;5075636;28;20031;-82
2024/03/29 06:49:35;;;;;;;2.15;1.10;;;10.00;99.90;;;;;;5076635;28;20028;-82
2024/03/29 06:52:02;;;;;;;1.80;1.17;;;10.00;99.90;;;;;;5094021;28;20546;-82
2024/03/29 06:54:28;;;;;;;3.55;1.10;;;10.00;99.90;;;;;;5094166;28;20024;-82
2024/03/29 06:56:54;;;;;;;3.97;1.33;;;9.90;99.90;;;;;;5075732;28;20028;-82
2024/03/29 06:59:20;;;;;;;2.08;0.98;;;9.80;99.90;;;;;;5093979;28;20052;-80
2024/03/29 07:01:51;;;;;;;1.52;0.90;;;9.80;99.90;;;;;;5075904;28;20047;-81
2024/03/29 07:04:21;;;;;;;2.55;1.05;;;9.70;99.90;;;;;;5076214;28;20069;-80
2024/03/29 07:06:52;;;;;;;1.35;0.82;;;9.70;99.90;;;;;;5076084;28;20376;-80
2024/03/29 07:09:20;;;;;;;5.38;1.15;;;9.70;99.90;;;;;;5093922;28;20024;-80
2024/03/29 07:11:46;;;;;;;3.17;1.40;;;9.60;99.90;;;;;;5076348;28;20055;-79
2024/03/29 07:14:13;;;;;;;1.70;0.88;;;9.60;99.90;;;;;;5076412;28;20456;-80
2024/03/29 07:16:38;;;;;;;3.00;0.82;;;9.60;99.90;;;;;;5076568;28;20115;-81
2024/03/29 07:19:04;;;;;;;2.42;1.00;;;9.60;99.90;;;;;;5072318;28;20064;-81
2024/03/29 07:21:30;;;;;;;2.47;1.00;;;9.60;99.90;;;;;;5090873;28;20024;-82
2024/03/29 07:23:55;;;;;;;3.15;1.25;;;9.60;99.90;;;;;;5093819;28;20031;-83
2024/03/29 07:26:21;;;;;;;2.45;1.10;;;9.60;99.90;;;;;;5076634;28;20020;-82
2024/03/29 07:28:46;;;;;;;2.65;0.90;;;9.50;99.90;;;;;;5094245;28;20364;-84
2024/03/29 07:31:12;;;;;;;2.65;1.10;;;9.50;99.90;;;;;;5076040;28;20052;-83
2024/03/29 07:33:37;;;;;;;2.08;1.10;;;9.50;99.90;;;;;;5093844;28;20055;-84
2024/03/29 07:36:04;;;;;;;3.42;1.40;;;9.50;99.90;;;;;;5078876;28;20016;-83
2024/03/29 07:38:32;;;;;;;2.60;0.90;;;9.60;99.90;;;;;;5080171;28;20031;-84
2024/03/29 07:40:57;;;;;;;4.40;1.10;;;9.60;99.90;;;;;;5079333;28;20111;-84
2024/03/29 07:43:23;;;;;;;3.67;0.93;;;9.60;99.90;;;;;;5079277;28;20051;-84
2024/03/29 07:45:49;;;;;;;1.52;1.05;;;9.60;99.90;;;;;;5076448;28;20535;-84
2024/03/29 07:48:16;;;;;;;2.63;1.25;;;9.60;99.90;;;;;;5075962;28;20025;-84
2024/03/29 07:50:46;;;;;;;2.15;1.02;;;9.60;99.90;;;;;;5076375;28;20024;-84
2024/03/29 07:53:12;;;;;;;1.20;1.00;;;9.60;99.90;;;;;;5075788;28;20025;-84
2024/03/29 07:55:38;;;;;;;1.20;1.00;;;9.60;99.90;;;;;;5076314;28;20024;-84
2024/03/29 07:58:05;;;;;;;3.67;1.15;;;9.60;99.90;;;;;;5075427;28;20021;-84
2024/03/29 08:00:34;;;;;;;2.17;1.17;;;9.50;99.90;;;;;;5076718;28;20166;-84
2024/03/29 08:03:00;;;;;;;4.50;1.00;;;9.50;99.90;;;;;;5076108;28;20074;-83
2024/03/29 08:05:27;;;;;;;2.42;1.40;;;9.50;99.90;;;;;;5076647;28;20163;-82
2024/03/29 08:07:53;;;;;;;1.85;1.00;;;9.40;99.90;;;;;;5076029;28;20043;-83
2024/03/29 08:10:18;;;;;;;3.13;1.10;;;9.40;99.90;;;;;;5076445;28;20032;-84
2024/03/29 08:12:44;;;;;;;4.45;1.42;;;9.40;99.90;;;;;;5075963;28;20046;-83
2024/03/29 08:15:09;;;;;;;3.00;1.02;;;9.40;99.90;;;;;;5075243;28;20024;-84
2024/03/29 08:17:36;;;;;;;2.55;0.93;;;9.30;99.90;;;;;;5077183;28;20500;-84
2024/03/29 08:20:02;;;;;;;5.00;1.10;;;9.30;99.90;;;;;;5075178;28;20534;-84
2024/03/29 08:22:28;;;;;;;2.03;1.08;;;9.40;99.90;;;;;;5075936;28;20118;-82
2024/03/29 08:24:54;;;;;;;1.70;0.98;;;9.30;99.90;;;;;;5075980;28;20031;-82
2024/03/29 08:27:20;;;;;;;3.75;1.48;;;9.30;99.90;;;;;;5075543;28;20446;-81
2024/03/29 08:29:46;;;;;;;3.45;1.65;;;9.30;99.90;;;;;;5075508;28;20031;-81
2024/03/29 08:32:12;;;;;;;3.40;1.08;;;9.40;99.90;;;;;;5075840;28;20495;-80
2024/03/29 08:34:38;;;;;;;2.50;1.35;;;9.40;99.90;;;;;;5075374;28;20024;-82
2024/03/29 08:37:04;;;;;;;1.75;0.80;;;9.30;99.90;;;;;;5075176;28;20043;-82
2024/03/29 08:39:31;;;;;;;5.43;1.05;;;9.40;99.90;;;;;;5076771;28;20102;-81
2024/03/29 08:41:57;;;;;;;1.75;0.90;;;9.40;99.90;;;;;;5074485;28;20024;-82
2024/03/29 08:44:24;;;;;;;1.98;1.10;;;9.50;99.90;;;;;;5075421;28;20126;-82
2024/03/29 08:46:50;;;;;;;4.25;1.20;;;9.50;99.90;;;;;;5075260;28;20031;-85
2024/03/29 08:49:16;;;;;;;1.90;1.00;;;9.50;99.90;;;;;;5075894;28;20032;-85
2024/03/29 08:51:41;;;;;;;1.23;0.90;;;9.50;99.90;;;;;;5075021;28;20466;-84
2024/03/29 08:54:07;;;;;;;2.28;1.15;;;9.60;99.90;;;;;;5075730;28;20097;-84
2024/03/29 08:56:36;;;;;;;2.75;1.00;;;9.70;99.90;;;;;;5076675;28;20046;-83
2024/03/29 08:59:07;;;;;;;3.20;1.00;;;9.80;99.90;;;;;;5075757;28;20052;-83
2024/03/29 09:01:48;;;;;;;5.32;1.38;;;9.80;99.90;;;;;;5076388;28;20027;-84
2024/03/29 09:04:15;;;;;;;2.67;1.05;;;10.00;99.90;;;;;;5074926;28;20112;-83
2024/03/29 09:06:40;;;;;;;3.17;1.20;;;10.00;99.90;;;;;;5075872;28;20024;-83
2024/03/29 09:09:07;;;;;;;3.63;1.65;;;10.20;99.90;;;;;;5075749;28;20043;-83
2024/03/29 09:11:33;;;;;;;3.42;1.25;;;10.40;99.90;;;;;;5075835;28;20017;-82
2024/03/29 09:13:58;;;;;;;2.45;1.40;;;10.60;99.90;;;;;;5074135;28;20031;-84
2024/03/29 09:16:25;;;;;;;2.70;1.50;;;10.70;99.90;;;;;;5075577;28;20028;-84
2024/03/29 09:18:52;;;;;;;2.03;1.27;;;10.90;99.90;;;;;;5074498;28;20020;-84
2024/03/29 09:21:19;;;;;;;3.08;1.20;;;10.90;99.90;;;;;;5074181;28;20020;-81
2024/03/29 09:23:46;;;;;;;2.17;1.13;;;10.90;99.90;;;;;;5075543;28;20053;-84
2024/03/29 09:26:14;;;;;;;3.63;1.45;;;10.80;99.90;;;;;;5074072;28;20025;-84
2024/03/29 09:28:40;;;;;;;3.42;1.23;;;10.80;99.90;;;;;;5074464;28;20020;-84
2024/03/29 09:31:05;;;;;;;2.70;1.30;;;10.80;99.90;;;;;;5073912;28;20024;-84
2024/03/29 09:33:31;;;;;;;3.35;1.35;;;10.80;99.90;;;;;;5066604;28;20433;-83
2024/03/29 09:35:58;;;;;;;3.83;1.38;;;10.90;99.90;;;;;;5075086;28;20025;-86
2024/03/29 09:38:25;;;;;;;3.75;2.33;;;11.00;99.90;;;;;;5074279;28;20485;-88
2024/03/29 09:41:15;;;;;;;4.60;1.75;;;11.20;99.90;;;;;;5074429;28;20122;-84
2024/03/29 09:43:44;;;;;;;4.20;1.60;;;11.40;99.90;;;;;;5074096;28;20457;-83
2024/03/29 09:46:10;;;;;;;3.75;1.80;;;11.50;99.90;;;;;;5095027;28;20060;-85
2024/03/29 09:48:38;;;;;;;5.95;2.08;;;11.50;99.90;;;;;;5077536;28;20036;-84
2024/03/29 09:51:08;;;;;;;3.30;1.50;;;11.40;99.90;;;;;;5077116;28;20027;-87
2024/03/29 09:53:37;;;;;;;3.40;1.60;;;11.40;99.90;;;;;;5077524;28;20465;-86
2024/03/29 09:56:06;;;;;;;2.55;1.48;;;11.50;99.90;;;;;;5076840;28;20027;-85
2024/03/29 09:58:33;;;;;;;5.43;1.30;;;11.50;99.90;;;;;;5094316;28;20024;-84
2024/03/29 10:01:00;;;;;;;2.90;1.50;;;11.60;99.90;;;;;;5077217;28;20085;-87
2024/03/29 10:03:31;;;;;;;5.60;1.80;;;11.60;99.90;;;;;;5077006;28;20101;-87
2024/03/29 10:06:00;;;;;;;3.08;1.70;;;11.60;99.90;;;;;;5077155;28;20016;-88
2024/03/29 10:08:31;;;;;;;1.98;1.35;;;11.80;99.90;;;;;;5077077;28;20054;-88
2024/03/29 10:10:57;;;;;;;3.20;1.45;;;11.90;99.90;;;;;;5076862;28;20024;-91
2024/03/29 10:13:23;;;;;;;5.65;1.90;;;12.10;99.90;;;;;;5076310;28;20024;-92
2024/03/29 10:15:51;;;;;;;4.90;1.70;;;12.10;99.90;;;;;;5076996;28;20024;-89
2024/03/29 10:18:19;;;;;;;3.80;1.58;;;12.10;99.90;;;;;;5076554;28;20028;-87
2024/03/29 10:20:45;;;;;;;4.00;1.30;;;12.20;99.90;;;;;;5077177;28;20031;-88
2024/03/29 10:23:10;;;;;;;4.22;1.98;;;12.20;99.90;;;;;;5076405;28;20020;-91
2024/03/29 10:25:36;;;;;;;2.88;1.50;;;12.20;99.90;;;;;;5076751;28;20026;-87
2024/03/29 10:28:02;;;;;;;2.97;1.55;;;12.20;99.90;;;;;;5076401;28;20126;-85
2024/03/29 10:30:28;;;;;;;4.47;1.63;;;12.30;99.90;;;;;;5076561;28;20024;-86
2024/03/29 10:32:57;;;;;;;2.58;1.30;;;12.20;99.90;;;;;;5094293;28;20449;-84
2024/03/29 10:35:24;;;;;;;3.33;1.50;;;12.20;99.90;;;;;;5093871;28;20526;-84
2024/03/29 10:37:52;;;;;;;3.38;1.50;;;12.20;99.90;;;;;;5076548;28;20027;-85
2024/03/29 10:40:20;;;;;;;5.43;1.60;;;12.30;99.90;;;;;;5094143;28;20035;-92
2024/03/29 10:42:48;;;;;;;6.10;1.77;;;12.30;99.90;;;;;;5076557;28;20066;-87
2024/03/29 10:45:16;;;;;;;3.67;1.73;;;12.30;99.90;;;;;;5075869;28;20097;-82
2024/03/29 10:47:44;;;;;;;3.53;1.60;;;12.40;99.90;;;;;;5076592;28;20035;-87
2024/03/29 10:50:14;;;;;;;3.17;1.35;;;12.50;99.90;;;;;;5075903;28;20051;-84
2024/03/29 10:52:40;;;;;;;3.63;1.30;;;12.60;99.90;;;;;;5076122;28;20522;-86
2024/03/29 10:55:13;;;;;;;3.15;1.67;;;12.70;99.90;;;;;;5075659;28;20024;-90
2024/03/29 10:57:42;;;;;;;2.53;1.63;;;12.80;99.90;;;;;;5076143;28;20016;-87
2024/03/29 11:00:21;;;;;;;3.58;1.83;;;12.90;99.90;;;;;;5075868;28;20024;-84
2024/03/29 11:03:08;;;;;;;2.75;1.48;;;13.10;99.90;;;;;;5076543;28;20045;-89
2024/03/29 11:05:37;;;;;;;3.88;1.40;;;13.20;99.90;;;;;;5076625;28;20031;-87
2024/03/29 11:08:06;;;;;;;3.03;1.52;;;13.30;99.90;;;;;;5093759;28;20024;-83
2024/03/29 11:10:45;;;;;;;2.78;1.30;;;13.30;99.90;;;;;;5079687;28;20023;-84
2024/03/29 11:13:45;;;;;;;2.70;1.25;;;13.30;99.90;;;;;;5079769;28;20381;-82
2024/03/29 11:16:11;;;;;;;3.47;1.65;;;13.40;99.90;;;;;;5097546;28;20024;-80
2024/03/29 11:18:37;;;;;;;3.78;1.35;;;13.30;99.90;;;;;;5080160;28;20111;-84
2024/03/29 11:21:06;;;;;;;3.17;1.50;;;13.40;99.90;;;;;;5079198;28;20016;-83
2024/03/29 11:23:32;;;;;;;4.07;2.00;;;13.30;99.90;;;;;;5080184;28;20058;-84
2024/03/29 11:26:00;;;;;;;4.18;1.70;;;13.30;99.90;;;;;;5098139;28;20016;-85
2024/03/29 11:28:29;;;;;;;2.38;1.25;;;13.40;99.90;;;;;;5079974;28;20020;-83
2024/03/29 11:30:59;;;;;;;3.35;1.63;;;13.40;99.90;;;;;;5079861;28;20024;-84
2024/03/29 11:33:32;;;;;;;3.35;1.63;;;13.50;99.90;;;;;;5097344;28;20031;-84
2024/03/29 11:35:59;;;;;;;4.50;1.80;;;13.50;99.90;;;;;;5079265;28;20016;-85
2024/03/29 11:38:32;;;;;;;3.47;1.75;;;13.60;99.90;;;;;;5059353;28;20020;-86
2024/03/29 11:41:10;;;;;;;2.88;1.40;;;13.60;99.90;;;;;;5085346;28;20020;-84
2024/03/29 11:43:37;;;;;;;2.65;1.40;;;13.70;99.90;;;;;;5085196;28;20036;-87
2024/03/29 11:46:07;;;;;;;5.15;1.60;;;13.80;99.90;;;;;;5083869;28;20040;-84
2024/03/29 11:48:33;;;;;;;3.78;1.52;;;13.90;99.90;;;;;;5077303;28;20089;-85
2024/03/29 11:51:00;;;;;;;3.00;1.40;;;14.10;99.90;;;;;;5059320;28;20020;-85
2024/03/29 11:53:27;;;;;;;1.48;1.38;;;14.10;99.90;;;;;;5059134;28;20028;-85
2024/03/29 11:55:53;;;;;;;2.28;1.08;;;14.10;99.90;;;;;;5059351;28;20016;-85
2024/03/29 11:58:21;;;;;;;2.33;1.50;;;14.20;99.90;;;;;;5076604;28;20159;-84
2024/03/29 12:00:48;;;;;;;3.45;1.60;;;14.20;99.90;;;;;;5059579;28;20084;-86
2024/03/29 12:03:17;;;;;;;2.80;1.70;;;14.20;99.90;;;;;;5058734;28;20025;-84
2024/03/29 12:05:48;;;;;;;2.03;1.10;;;14.20;99.90;;;;;;5076388;28;20028;-83
2024/03/29 12:08:14;;;;;;;2.10;1.40;;;14.10;99.90;;;;;;5096074;28;20008;-85
2024/03/29 12:10:40;;;;;;;2.33;1.10;;;14.20;99.90;;;;;;5079250;28;20020;-82
2024/03/29 12:13:07;;;;;;;3.65;1.38;;;14.20;99.90;;;;;;5078545;28;20067;-83
2024/03/29 12:15:33;;;;;;;1.50;0.98;;;14.00;99.90;;;;;;5078389;28;20150;-81
2024/03/29 12:18:05;;;;;;;1.65;0.95;;;14.00;99.90;;;;;;5078649;28;20031;-82
2024/03/29 12:20:31;;;;;;;3.03;1.05;;;14.00;99.90;;;;;;5077798;28;20073;-80
2024/03/29 12:23:00;;;;;;;3.15;1.30;;;14.00;99.90;;;;;;5078293;28;20028;-81
2024/03/29 12:25:27;;;;;;;2.25;1.08;;;14.10;99.90;;;;;;5078872;28;20028;-80
2024/03/29 12:27:54;;;;;;;2.97;1.00;;;14.00;99.90;;;;;;5078627;28;20043;-80
2024/03/29 12:30:20;;;;;;;1.65;1.10;;;14.00;99.90;;;;;;5078062;28;20396;-80
2024/03/29 12:32:46;;;;;;;2.25;0.88;;;14.00;99.90;;;;;;5078280;28;20462;-81
2024/03/29 12:35:13;;;;;;;1.70;1.00;;;14.00;99.90;;;;;;5078397;28;20063;-80
2024/03/29 12:37:48;;;;;;;3.22;1.02;;;14.10;99.90;;;;;;5078406;28;20020;-84
2024/03/29 12:40:18;;;;;;;3.63;1.00;;;14.10;99.90;;;;;;5095886;28;20031;-81
2024/03/29 12:42:44;;;;;;;1.48;1.00;;;14.10;99.90;;;;;;5078557;28;20020;-82
2024/03/29 12:45:10;;;;;;;2.45;1.38;;;14.10;99.90;;;;;;5095417;28;20044;-81
2024/03/29 12:47:36;;;;;;;2.13;1.17;;;13.90;99.90;;;;;;5096048;28;20027;-82
2024/03/29 12:50:03;;;;;;;3.75;0.95;;;13.90;99.90;;;;;;5077924;28;20016;-81
2024/03/29 12:52:40;;;;;;;2.20;1.20;;;13.80;99.90;;;;;;5078018;28;20036;-82
2024/03/29 12:55:10;;;;;;;2.47;1.20;;;13.70;99.90;;;;;;5077732;28;20039;-81
2024/03/29 12:57:37;;;;;;;2.67;1.48;;;13.70;99.90;;;;;;5077671;28;20031;-83